createdAt,value
2022-09-27T00:00:36.799Z,592.0000
2022-09-27T00:01:39.203Z,590.0000
2022-09-27T00:02:39.315Z,589.0000
2022-09-27T00:03:41.565Z,586.0000
2022-09-27T00:04:43.841Z,586.0000
2022-09-27T00:05:46.151Z,584.0000
2022-09-27T00:06:48.441Z,583.0000
2022-09-27T00:07:48.621Z,582.0000
2022-09-27T00:08:50.843Z,582.0000
2022-09-27T00:09:53.116Z,579.0000
2022-09-27T00:10:55.441Z,583.0000
2022-09-27T00:11:57.685Z,580.0000
2022-09-27T00:12:59.962Z,580.0000
2022-09-27T00:14:02.245Z,579.0000
2022-09-27T00:15:04.527Z,576.0000
2022-09-27T00:16:04.770Z,577.0000
2022-09-27T00:17:06.853Z,577.0000
2022-09-27T00:18:09.100Z,577.0000
2022-09-27T00:19:11.384Z,574.0000
2022-09-27T00:20:13.599Z,573.0000
2022-09-27T00:21:15.881Z,571.0000
2022-09-27T00:22:18.113Z,572.0000
2022-09-27T00:23:20.375Z,572.0000
2022-09-27T00:24:22.641Z,570.0000
2022-09-27T00:25:22.753Z,570.0000
2022-09-27T00:26:25.032Z,571.0000
2022-09-27T00:27:27.259Z,571.0000
2022-09-27T00:28:29.499Z,571.0000
2022-09-27T00:29:31.726Z,572.0000
2022-09-27T00:30:33.985Z,572.0000
2022-09-27T00:31:36.347Z,576.0000
2022-09-27T00:32:38.515Z,575.0000
2022-09-27T00:33:40.806Z,574.0000
2022-09-27T00:34:40.936Z,574.0000
2022-09-27T00:35:43.262Z,570.0000
2022-09-27T00:36:45.598Z,568.0000
2022-09-27T00:37:47.861Z,568.0000
2022-09-27T00:38:50.159Z,570.0000
2022-09-27T00:39:52.430Z,570.0000
2022-09-27T00:40:52.606Z,569.0000
2022-09-27T00:41:54.885Z,566.0000
2022-09-27T00:42:57.133Z,564.0000
2022-09-27T00:43:59.437Z,562.0000
2022-09-27T00:45:01.727Z,562.0000
2022-09-27T00:46:04.065Z,557.0000
2022-09-27T00:47:06.352Z,560.0000
2022-09-27T00:48:06.498Z,562.0000
2022-09-27T00:49:08.851Z,561.0000
2022-09-27T00:50:11.006Z,557.0000
2022-09-27T00:51:13.244Z,554.0000
2022-09-27T00:52:15.542Z,554.0000
2022-09-27T00:53:17.723Z,556.0000
2022-09-27T00:54:19.982Z,554.0000
2022-09-27T00:55:22.240Z,552.0000
2022-09-27T00:56:24.480Z,554.0000
2022-09-27T00:57:24.657Z,554.0000
2022-09-27T00:58:26.896Z,554.0000
2022-09-27T00:59:29.179Z,554.0000
2022-09-27T01:00:31.476Z,552.0000
2022-09-27T01:01:33.785Z,551.0000
2022-09-27T01:02:36.107Z,551.0000
2022-09-27T01:03:38.332Z,551.0000
2022-09-27T01:04:40.603Z,551.0000
2022-09-27T01:05:40.746Z,551.0000
2022-09-27T01:06:43.037Z,548.0000
2022-09-27T01:07:45.335Z,549.0000
2022-09-27T01:08:47.552Z,550.0000
2022-09-27T01:11:05.022Z,544.0000
2022-09-27T01:12:07.159Z,549.0000
2022-09-27T01:13:07.234Z,546.0000
2022-09-27T01:14:09.359Z,545.0000
2022-09-27T01:15:11.551Z,542.0000
2022-09-27T01:16:13.843Z,539.0000
2022-09-27T01:17:16.039Z,539.0000
2022-09-27T01:18:18.308Z,539.0000
2022-09-27T01:19:20.538Z,540.0000
2022-09-27T01:20:22.725Z,541.0000
2022-09-27T01:21:24.903Z,541.0000
2022-09-27T01:22:27.123Z,541.0000
2022-09-27T01:23:29.371Z,541.0000
2022-09-27T01:24:31.522Z,538.0000
2022-09-27T01:25:33.750Z,540.0000
2022-09-27T01:26:35.987Z,538.0000
2022-09-27T01:27:38.226Z,535.0000
2022-09-27T01:28:38.281Z,534.0000
2022-09-27T01:29:40.489Z,535.0000
2022-09-27T01:30:42.774Z,535.0000
2022-09-27T01:31:44.958Z,537.0000
2022-09-27T01:32:47.182Z,539.0000
2022-09-27T01:33:49.463Z,540.0000
2022-09-27T01:34:51.712Z,542.0000
2022-09-27T01:35:53.950Z,544.0000
2022-09-27T01:36:56.191Z,540.0000
2022-09-27T01:37:58.416Z,539.0000
2022-09-27T01:39:00.713Z,538.0000
2022-09-27T01:40:00.841Z,538.0000
2022-09-27T01:41:03.242Z,535.0000
2022-09-27T01:42:05.458Z,533.0000
2022-09-27T01:43:07.784Z,535.0000
2022-09-27T01:44:10.086Z,534.0000
2022-09-27T01:45:12.359Z,534.0000
2022-09-27T01:46:12.585Z,535.0000
2022-09-27T01:47:14.829Z,534.0000
2022-09-27T01:48:17.150Z,535.0000
2022-09-27T01:49:19.496Z,534.0000
2022-09-27T01:51:34.898Z,532.0000
2022-09-27T01:52:37.094Z,533.0000
2022-09-27T01:53:37.208Z,531.0000
2022-09-27T01:54:39.478Z,534.0000
2022-09-27T01:55:41.697Z,531.0000
2022-09-27T01:56:43.910Z,532.0000
2022-09-27T01:57:46.140Z,536.0000
2022-09-27T01:58:48.375Z,534.0000
2022-09-27T01:59:50.694Z,535.0000
2022-09-27T02:00:52.966Z,533.0000
2022-09-27T02:01:55.247Z,532.0000
2022-09-27T02:02:57.577Z,529.0000
2022-09-27T02:03:57.589Z,526.0000
2022-09-27T02:04:59.886Z,527.0000
2022-09-27T02:06:02.104Z,527.0000
2022-09-27T02:07:04.358Z,525.0000
2022-09-27T02:08:06.556Z,527.0000
2022-09-27T02:09:08.881Z,527.0000
2022-09-27T02:10:11.028Z,527.0000
2022-09-27T02:11:13.254Z,530.0000
2022-09-27T02:12:15.468Z,531.0000
2022-09-27T02:13:17.702Z,531.0000
2022-09-27T02:14:19.956Z,529.0000
2022-09-27T02:15:20.100Z,531.0000
2022-09-27T02:16:22.431Z,532.0000
2022-09-27T02:17:24.634Z,534.0000
2022-09-27T02:18:26.926Z,534.0000
2022-09-27T02:19:29.213Z,530.0000
2022-09-27T02:20:31.555Z,533.0000
2022-09-27T02:21:33.809Z,530.0000
2022-09-27T02:22:34.030Z,520.0000
2022-09-27T02:25:00.127Z,523.0000
2022-09-27T02:26:02.377Z,518.0000
2022-09-27T02:27:04.645Z,516.0000
2022-09-27T02:28:06.929Z,515.0000
2022-09-27T02:29:09.260Z,519.0000
2022-09-27T02:30:11.549Z,518.0000
2022-09-27T02:31:14.101Z,519.0000
2022-09-27T02:32:16.084Z,516.0000
2022-09-27T02:33:16.260Z,519.0000
2022-09-27T02:34:18.565Z,522.0000
2022-09-27T02:35:20.838Z,522.0000
2022-09-27T02:36:23.101Z,523.0000
2022-09-27T02:37:25.330Z,523.0000
2022-09-27T02:38:27.634Z,520.0000
2022-09-27T02:39:29.858Z,519.0000
2022-09-27T02:40:32.161Z,518.0000
2022-09-27T02:41:32.187Z,520.0000
2022-09-27T02:42:34.434Z,520.0000
2022-09-27T02:43:36.707Z,519.0000
2022-09-27T02:44:38.955Z,519.0000
2022-09-27T02:45:41.374Z,520.0000
2022-09-27T02:46:43.538Z,521.0000
2022-09-27T02:47:45.725Z,521.0000
2022-09-27T02:48:48.016Z,522.0000
2022-09-27T02:49:50.312Z,523.0000
2022-09-27T02:50:50.431Z,523.0000
2022-09-27T02:51:52.741Z,525.0000
2022-09-27T02:52:54.993Z,528.0000
2022-09-27T02:53:57.312Z,523.0000
2022-09-27T02:54:59.573Z,522.0000
2022-09-27T02:56:01.830Z,522.0000
2022-09-27T02:57:01.999Z,522.0000
2022-09-27T02:58:04.268Z,521.0000
2022-09-27T02:59:06.498Z,522.0000
2022-09-27T03:00:08.764Z,526.0000
2022-09-27T03:01:11.037Z,526.0000
2022-09-27T03:02:13.969Z,528.0000
2022-09-27T03:03:15.495Z,530.0000
2022-09-27T03:04:17.772Z,527.0000
2022-09-27T03:05:19.993Z,526.0000
2022-09-27T03:06:22.238Z,527.0000
2022-09-27T03:07:22.413Z,525.0000
2022-09-27T03:08:24.694Z,527.0000
2022-09-27T03:09:27.043Z,526.0000
2022-09-27T03:10:29.345Z,523.0000
2022-09-27T03:11:31.647Z,524.0000
2022-09-27T03:12:33.995Z,523.0000
2022-09-27T03:13:41.893Z,522.0000
2022-09-27T03:14:36.424Z,522.0000
2022-09-27T03:15:38.743Z,527.0000
2022-09-27T03:16:41.117Z,533.0000
2022-09-27T03:17:43.391Z,541.0000
2022-09-27T03:18:45.705Z,544.0000
2022-09-27T03:19:45.850Z,552.0000
2022-09-27T03:20:48.163Z,556.0000
2022-09-27T03:21:50.488Z,561.0000
2022-09-27T03:22:52.838Z,565.0000
2022-09-27T03:23:55.137Z,566.0000
2022-09-27T03:24:57.430Z,569.0000
2022-09-27T03:25:57.585Z,571.0000
2022-09-27T03:26:59.926Z,574.0000
2022-09-27T03:28:02.301Z,577.0000
2022-09-27T03:29:04.541Z,576.0000
2022-09-27T03:30:06.802Z,576.0000
2022-09-27T03:31:07.081Z,577.0000
2022-09-27T03:32:09.271Z,581.0000
2022-09-27T03:33:11.602Z,583.0000
2022-09-27T03:34:13.871Z,580.0000
2022-09-27T03:35:16.196Z,577.0000
2022-09-27T03:36:18.533Z,576.0000
2022-09-27T03:37:18.726Z,579.0000
2022-09-27T03:38:21.069Z,577.0000
2022-09-27T03:39:23.293Z,578.0000
2022-09-27T03:40:25.696Z,580.0000
2022-09-27T03:41:27.923Z,577.0000
2022-09-27T03:42:30.225Z,579.0000
2022-09-27T03:43:32.554Z,577.0000
2022-09-27T03:44:32.692Z,579.0000
2022-09-27T03:45:35.032Z,585.0000
2022-09-27T03:46:37.462Z,586.0000
2022-09-27T03:47:39.715Z,586.0000
2022-09-27T03:48:42.069Z,586.0000
2022-09-27T03:49:42.225Z,585.0000
2022-09-27T03:50:44.556Z,584.0000
2022-09-27T03:51:46.894Z,584.0000
2022-09-27T03:52:49.216Z,587.0000
2022-09-27T03:53:51.563Z,584.0000
2022-09-27T03:54:57.383Z,583.0000
2022-09-27T03:55:53.971Z,583.0000
2022-09-27T03:56:56.261Z,581.0000
2022-09-27T03:57:58.579Z,585.0000
2022-09-27T03:59:00.934Z,585.0000
2022-09-27T04:00:03.236Z,588.0000
2022-09-27T04:01:05.689Z,591.0000
2022-09-27T04:02:05.794Z,592.0000
2022-09-27T04:03:08.073Z,595.0000
2022-09-27T04:04:11.312Z,596.0000
2022-09-27T04:05:12.727Z,597.0000
2022-09-27T04:06:15.093Z,600.0000
2022-09-27T04:07:15.265Z,602.0000
2022-09-27T04:08:17.552Z,607.0000
2022-09-27T04:09:19.904Z,609.0000
2022-09-27T04:10:22.205Z,610.0000
2022-09-27T04:11:24.564Z,612.0000
2022-09-27T04:12:24.694Z,612.0000
2022-09-27T04:13:26.952Z,611.0000
2022-09-27T04:14:29.272Z,609.0000
2022-09-27T04:15:31.543Z,612.0000
2022-09-27T04:16:33.973Z,613.0000
2022-09-27T04:17:36.156Z,609.0000
2022-09-27T04:18:38.477Z,610.0000
2022-09-27T04:19:38.652Z,609.0000
2022-09-27T04:20:40.966Z,612.0000
2022-09-27T04:21:43.247Z,616.0000
2022-09-27T04:22:45.531Z,616.0000
2022-09-27T04:23:47.809Z,617.0000
2022-09-27T04:24:50.123Z,618.0000
2022-09-27T04:25:52.375Z,620.0000
2022-09-27T04:26:52.497Z,622.0000
2022-09-27T04:27:54.766Z,619.0000
2022-09-27T04:28:57.052Z,620.0000
2022-09-27T04:30:51.045Z,619.0000
2022-09-27T04:31:53.129Z,624.0000
2022-09-27T04:32:55.348Z,627.0000
2022-09-27T04:33:55.437Z,629.0000
2022-09-27T04:34:57.669Z,627.0000
2022-09-27T04:35:59.916Z,630.0000
2022-09-27T04:37:02.121Z,629.0000
2022-09-27T04:38:04.358Z,631.0000
2022-09-27T04:39:06.592Z,632.0000
2022-09-27T04:40:08.790Z,634.0000
2022-09-27T04:41:11.087Z,629.0000
2022-09-27T04:42:13.300Z,631.0000
2022-09-27T04:43:15.543Z,633.0000
2022-09-27T04:44:17.800Z,635.0000
2022-09-27T04:45:17.908Z,634.0000
2022-09-27T04:46:20.263Z,633.0000
2022-09-27T04:47:22.387Z,633.0000
2022-09-27T04:48:24.637Z,635.0000
2022-09-27T04:49:26.920Z,635.0000
2022-09-27T04:50:30.390Z,635.0000
2022-09-27T04:51:31.499Z,639.0000
2022-09-27T04:52:33.824Z,640.0000
2022-09-27T04:53:34.005Z,645.0000
2022-09-27T04:54:36.344Z,647.0000
2022-09-27T04:55:38.667Z,648.0000
2022-09-27T04:56:41.001Z,650.0000
2022-09-27T04:57:43.334Z,652.0000
2022-09-27T04:58:45.605Z,652.0000
2022-09-27T04:59:45.738Z,651.0000
2022-09-27T05:00:48.011Z,656.0000
2022-09-27T05:01:50.381Z,654.0000
2022-09-27T05:02:52.619Z,653.0000
2022-09-27T05:03:52.741Z,650.0000
2022-09-27T05:04:55.025Z,651.0000
2022-09-27T05:05:55.163Z,651.0000
2022-09-27T05:06:57.566Z,648.0000
2022-09-27T05:07:59.729Z,647.0000
2022-09-27T05:09:02.009Z,648.0000
2022-09-27T05:10:04.297Z,646.0000
2022-09-27T05:11:06.583Z,645.0000
2022-09-27T05:12:08.893Z,643.0000
2022-09-27T05:13:09.029Z,640.0000
2022-09-27T05:14:11.294Z,638.0000
2022-09-27T05:15:13.554Z,633.0000
2022-09-27T05:16:15.850Z,625.0000
2022-09-27T05:17:18.120Z,627.0000
2022-09-27T05:18:20.278Z,626.0000
2022-09-27T05:19:22.544Z,625.0000
2022-09-27T05:20:24.819Z,625.0000
2022-09-27T05:21:27.093Z,624.0000
2022-09-27T05:22:27.230Z,624.0000
2022-09-27T05:23:29.435Z,623.0000
2022-09-27T05:24:31.684Z,621.0000
2022-09-27T05:25:33.979Z,624.0000
2022-09-27T05:26:36.245Z,621.0000
2022-09-27T05:27:38.554Z,621.0000
2022-09-27T05:28:40.776Z,616.0000
2022-09-27T05:29:42.973Z,615.0000
2022-09-27T05:30:45.247Z,615.0000
2022-09-27T05:31:47.403Z,615.0000
2022-09-27T05:32:47.561Z,612.0000
2022-09-27T05:33:49.782Z,614.0000
2022-09-27T05:34:52.062Z,612.0000
2022-09-27T05:35:54.349Z,613.0000
2022-09-27T05:36:56.636Z,614.0000
2022-09-27T05:37:58.972Z,612.0000
2022-09-27T05:39:01.202Z,609.0000
2022-09-27T05:40:12.205Z,610.0000
2022-09-27T05:41:03.591Z,612.0000
2022-09-27T05:42:05.710Z,611.0000
2022-09-27T05:43:07.952Z,611.0000
2022-09-27T05:44:10.290Z,609.0000
2022-09-27T05:45:12.440Z,608.0000
2022-09-27T05:46:14.807Z,606.0000
2022-09-27T05:47:16.971Z,606.0000
2022-09-27T05:48:19.298Z,602.0000
2022-09-27T05:49:19.425Z,602.0000
2022-09-27T05:50:21.726Z,601.0000
2022-09-27T05:51:24.031Z,601.0000
2022-09-27T05:52:26.342Z,599.0000
2022-09-27T05:53:28.676Z,601.0000
2022-09-27T05:54:30.980Z,601.0000
2022-09-27T05:55:31.156Z,601.0000
2022-09-27T05:56:33.487Z,599.0000
2022-09-27T05:57:35.792Z,599.0000
2022-09-27T05:58:38.135Z,596.0000
2022-09-27T05:59:40.408Z,599.0000
2022-09-27T06:00:42.668Z,600.0000
2022-09-27T06:01:44.962Z,596.0000
2022-09-27T06:02:45.098Z,593.0000
2022-09-27T06:03:47.344Z,593.0000
2022-09-27T06:04:49.585Z,593.0000
2022-09-27T06:05:51.799Z,592.0000
2022-09-27T06:06:54.055Z,592.0000
2022-09-27T06:07:56.302Z,588.0000
2022-09-27T06:10:00.765Z,586.0000
2022-09-27T06:11:02.980Z,587.0000
2022-09-27T06:12:05.170Z,586.0000
2022-09-27T06:13:05.267Z,584.0000
2022-09-27T06:14:07.559Z,585.0000
2022-09-27T06:15:09.791Z,583.0000
2022-09-27T06:16:12.099Z,581.0000
2022-09-27T06:17:14.249Z,582.0000
2022-09-27T06:18:16.442Z,584.0000
2022-09-27T06:19:18.655Z,584.0000
2022-09-27T06:21:31.821Z,567.0000
2022-09-27T06:22:34.006Z,567.0000
2022-09-27T06:23:36.224Z,566.0000
2022-09-27T06:24:36.386Z,567.0000
2022-09-27T06:25:38.644Z,567.0000
2022-09-27T06:26:40.942Z,568.0000
2022-09-27T06:27:43.222Z,568.0000
2022-09-27T06:28:45.525Z,570.0000
2022-09-27T06:29:47.843Z,572.0000
2022-09-27T06:30:50.231Z,571.0000
2022-09-27T06:31:50.300Z,572.0000
2022-09-27T06:32:52.611Z,571.0000
2022-09-27T06:33:54.923Z,570.0000
2022-09-27T06:34:57.278Z,569.0000
2022-09-27T06:35:57.422Z,567.0000
2022-09-27T06:36:59.749Z,571.0000
2022-09-27T06:38:02.071Z,573.0000
2022-09-27T06:39:04.408Z,571.0000
2022-09-27T06:40:06.774Z,570.0000
2022-09-27T06:41:09.069Z,569.0000
2022-09-27T06:42:09.228Z,568.0000
2022-09-27T06:43:11.486Z,571.0000
2022-09-27T06:44:13.749Z,569.0000
2022-09-27T06:45:16.036Z,567.0000
2022-09-27T06:46:18.463Z,564.0000
2022-09-27T06:47:20.635Z,562.0000
2022-09-27T06:48:22.954Z,561.0000
2022-09-27T06:49:23.129Z,561.0000
2022-09-27T06:50:23.337Z,561.0000
2022-09-27T06:51:25.642Z,561.0000
2022-09-27T06:52:27.967Z,560.0000
2022-09-27T06:53:30.304Z,563.0000
2022-09-27T06:54:32.598Z,563.0000
2022-09-27T06:55:32.771Z,564.0000
2022-09-27T06:56:35.075Z,565.0000
2022-09-27T06:57:37.431Z,565.0000
2022-09-27T06:58:39.757Z,562.0000
2022-09-27T06:59:42.102Z,563.0000
2022-09-27T07:00:44.391Z,561.0000
2022-09-27T07:01:46.880Z,562.0000
2022-09-27T07:02:49.048Z,560.0000
2022-09-27T07:03:51.381Z,561.0000
2022-09-27T07:04:53.725Z,560.0000
2022-09-27T07:05:53.947Z,560.0000
2022-09-27T07:06:56.255Z,561.0000
2022-09-27T07:07:58.593Z,561.0000
2022-09-27T07:09:00.921Z,564.0000
2022-09-27T07:10:07.639Z,563.0000
2022-09-27T07:11:03.448Z,564.0000
2022-09-27T07:12:05.730Z,565.0000
2022-09-27T07:13:08.016Z,566.0000
2022-09-27T07:14:10.344Z,563.0000
2022-09-27T07:15:12.674Z,563.0000
2022-09-27T07:16:15.115Z,563.0000
2022-09-27T07:17:15.221Z,565.0000
2022-09-27T07:18:17.495Z,564.0000
2022-09-27T07:19:19.791Z,564.0000
2022-09-27T07:20:22.101Z,564.0000
2022-09-27T07:21:24.418Z,563.0000
2022-09-27T07:22:26.685Z,558.0000
2022-09-27T07:23:26.834Z,555.0000
2022-09-27T07:24:29.068Z,556.0000
2022-09-27T07:25:31.346Z,553.0000
2022-09-27T07:26:33.639Z,552.0000
2022-09-27T07:27:38.503Z,551.0000
2022-09-27T07:28:38.171Z,552.0000
2022-09-27T07:29:40.448Z,553.0000
2022-09-27T07:30:42.785Z,554.0000
2022-09-27T07:31:42.877Z,555.0000
2022-09-27T07:32:45.134Z,554.0000
2022-09-27T07:33:47.380Z,553.0000
2022-09-27T07:36:03.871Z,544.0000
2022-09-27T07:38:05.303Z,540.0000
2022-09-27T07:39:07.595Z,541.0000
2022-09-27T07:40:09.898Z,540.0000
2022-09-27T07:41:12.188Z,542.0000
2022-09-27T07:42:14.447Z,541.0000
2022-09-27T07:43:51.197Z,523.0000
2022-09-27T07:44:53.274Z,529.0000
2022-09-27T07:45:55.625Z,529.0000
2022-09-27T07:46:57.814Z,531.0000
2022-09-27T07:48:00.107Z,531.0000
2022-09-27T07:49:02.356Z,531.0000
2022-09-27T07:50:04.617Z,529.0000
2022-09-27T07:51:06.862Z,530.0000
2022-09-27T07:52:09.112Z,531.0000
2022-09-27T07:53:09.249Z,527.0000
2022-09-27T07:54:11.542Z,527.0000
2022-09-27T07:55:13.822Z,530.0000
2022-09-27T07:56:16.144Z,532.0000
2022-09-27T07:57:18.443Z,529.0000
2022-09-27T07:58:20.754Z,528.0000
2022-09-27T07:59:23.088Z,529.0000
2022-09-27T08:00:23.213Z,528.0000
2022-09-27T08:01:25.584Z,528.0000
2022-09-27T08:02:27.889Z,529.0000
2022-09-27T08:03:30.154Z,532.0000
2022-09-27T08:04:32.485Z,528.0000
2022-09-27T08:05:34.744Z,527.0000
2022-09-27T08:06:34.909Z,525.0000
2022-09-27T08:07:37.222Z,522.0000
2022-09-27T08:08:39.508Z,523.0000
2022-09-27T08:09:41.826Z,524.0000
2022-09-27T08:10:44.129Z,523.0000
2022-09-27T08:11:46.450Z,523.0000
2022-09-27T08:12:48.787Z,521.0000
2022-09-27T08:13:48.944Z,520.0000
2022-09-27T08:14:51.250Z,519.0000
2022-09-27T08:15:53.501Z,522.0000
2022-09-27T08:16:55.777Z,519.0000
2022-09-27T08:17:58.051Z,519.0000
2022-09-27T08:19:00.597Z,520.0000
2022-09-27T08:20:00.520Z,518.0000
2022-09-27T08:21:02.778Z,516.0000
2022-09-27T08:22:05.052Z,515.0000
2022-09-27T08:23:07.310Z,516.0000
2022-09-27T08:24:09.560Z,516.0000
2022-09-27T08:25:11.840Z,517.0000
2022-09-27T08:26:14.050Z,516.0000
2022-09-27T08:27:16.263Z,515.0000
2022-09-27T08:28:18.515Z,515.0000
2022-09-27T08:29:18.625Z,514.0000
2022-09-27T08:30:20.906Z,514.0000
2022-09-27T08:31:23.227Z,510.0000
2022-09-27T08:32:25.399Z,509.0000
2022-09-27T08:33:32.368Z,510.0000
2022-09-27T08:34:29.902Z,511.0000
2022-09-27T08:35:32.164Z,509.0000
2022-09-27T08:36:34.387Z,509.0000
2022-09-27T08:37:36.659Z,509.0000
2022-09-27T08:38:36.778Z,511.0000
2022-09-27T08:39:39.036Z,510.0000
2022-09-27T08:40:41.354Z,512.0000
2022-09-27T08:41:43.517Z,511.0000
2022-09-27T08:42:45.731Z,510.0000
2022-09-27T08:43:47.983Z,511.0000
2022-09-27T08:44:50.198Z,513.0000
2022-09-27T08:45:52.526Z,513.0000
2022-09-27T08:46:54.714Z,514.0000
2022-09-27T08:47:56.948Z,509.0000
2022-09-27T08:48:57.013Z,509.0000
2022-09-27T08:50:18.750Z,499.0000
2022-09-27T08:52:18.910Z,513.0000
2022-09-27T08:53:21.058Z,513.0000
2022-09-27T08:54:22.131Z,512.0000
2022-09-27T08:55:23.380Z,508.0000
2022-09-27T08:56:25.644Z,504.0000
2022-09-27T08:57:27.939Z,503.0000
2022-09-27T08:58:30.205Z,501.0000
2022-09-27T08:59:32.508Z,500.0000
2022-09-27T09:00:34.796Z,500.0000
2022-09-27T09:01:37.141Z,501.0000
2022-09-27T09:02:37.315Z,503.0000
2022-09-27T09:03:39.460Z,500.0000
2022-09-27T09:04:41.717Z,500.0000
2022-09-27T09:05:43.995Z,497.0000
2022-09-27T09:06:46.192Z,496.0000
2022-09-27T09:07:48.439Z,498.0000
2022-09-27T09:08:51.193Z,496.0000
2022-09-27T09:09:52.933Z,495.0000
2022-09-27T09:10:55.226Z,496.0000
2022-09-27T09:11:55.369Z,492.0000
2022-09-27T09:12:57.710Z,491.0000
2022-09-27T09:13:57.824Z,491.0000
2022-09-27T09:15:00.123Z,490.0000
2022-09-27T09:16:02.561Z,488.0000
2022-09-27T09:17:04.687Z,489.0000
2022-09-27T09:18:07.034Z,489.0000
2022-09-27T09:19:07.145Z,489.0000
2022-09-27T09:20:13.433Z,490.0000
2022-09-27T09:21:11.771Z,489.0000
2022-09-27T09:22:14.021Z,491.0000
2022-09-27T09:23:16.359Z,490.0000
2022-09-27T09:24:18.598Z,491.0000
2022-09-27T09:25:20.864Z,493.0000
2022-09-27T09:26:21.028Z,493.0000
2022-09-27T09:27:23.300Z,494.0000
2022-09-27T09:28:25.607Z,494.0000
2022-09-27T09:29:27.850Z,496.0000
2022-09-27T09:30:30.095Z,495.0000
2022-09-27T09:31:32.379Z,492.0000
2022-09-27T09:32:34.599Z,490.0000
2022-09-27T09:33:34.734Z,489.0000
2022-09-27T09:34:36.924Z,489.0000
2022-09-27T09:35:39.147Z,491.0000
2022-09-27T09:36:41.470Z,489.0000
2022-09-27T09:37:43.762Z,490.0000
2022-09-27T09:38:46.094Z,489.0000
2022-09-27T09:39:48.335Z,487.0000
2022-09-27T09:40:50.705Z,487.0000
2022-09-27T09:41:50.821Z,486.0000
2022-09-27T09:42:53.137Z,483.0000
2022-09-27T09:43:55.476Z,482.0000
2022-09-27T09:44:57.756Z,483.0000
2022-09-27T09:46:00.124Z,485.0000
2022-09-27T09:47:02.351Z,487.0000
2022-09-27T09:48:02.511Z,488.0000
2022-09-27T09:49:04.874Z,491.0000
2022-09-27T09:50:07.130Z,496.0000
2022-09-27T09:51:09.389Z,495.0000
2022-09-27T09:52:11.682Z,492.0000
2022-09-27T09:53:13.913Z,491.0000
2022-09-27T09:54:16.337Z,490.0000
2022-09-27T09:55:16.352Z,491.0000
2022-09-27T09:56:18.673Z,490.0000
2022-09-27T09:57:20.987Z,489.0000
2022-09-27T09:58:23.299Z,487.0000
2022-09-27T09:59:25.621Z,483.0000
2022-09-27T10:00:27.860Z,481.0000
2022-09-27T10:01:28.065Z,483.0000
2022-09-27T10:02:30.300Z,485.0000
2022-09-27T10:03:32.537Z,481.0000
2022-09-27T10:04:34.816Z,480.0000
2022-09-27T10:05:37.050Z,481.0000
2022-09-27T10:06:39.265Z,481.0000
2022-09-27T10:07:41.456Z,478.0000
2022-09-27T10:08:43.636Z,478.0000
2022-09-27T10:09:45.960Z,478.0000
2022-09-27T10:10:46.027Z,476.0000
2022-09-27T10:11:48.294Z,475.0000
2022-09-27T10:12:50.568Z,474.0000
2022-09-27T10:13:52.842Z,474.0000
2022-09-27T10:14:55.125Z,475.0000
2022-09-27T10:15:57.393Z,475.0000
2022-09-27T10:16:59.587Z,477.0000
2022-09-27T10:18:01.845Z,478.0000
2022-09-27T10:19:04.096Z,478.0000
2022-09-27T10:20:04.196Z,478.0000
2022-09-27T10:21:06.409Z,478.0000
2022-09-27T10:22:08.625Z,479.0000
2022-09-27T10:23:10.916Z,477.0000
2022-09-27T10:24:17.771Z,476.0000
2022-09-27T10:25:15.399Z,476.0000
2022-09-27T10:26:17.635Z,474.0000
2022-09-27T10:27:19.924Z,475.0000
2022-09-27T10:28:22.210Z,476.0000
2022-09-27T10:29:22.361Z,473.0000
2022-09-27T10:30:24.679Z,475.0000
2022-09-27T10:31:26.946Z,474.0000
2022-09-27T10:32:29.153Z,475.0000
2022-09-27T10:33:31.446Z,475.0000
2022-09-27T10:34:33.674Z,475.0000
2022-09-27T10:35:35.944Z,471.0000
2022-09-27T10:36:38.127Z,474.0000
2022-09-27T10:37:38.221Z,476.0000
2022-09-27T10:38:40.527Z,478.0000
2022-09-27T10:39:42.732Z,474.0000
2022-09-27T10:40:45.167Z,473.0000
2022-09-27T10:41:47.343Z,473.0000
2022-09-27T10:42:49.597Z,475.0000
2022-09-27T10:43:51.863Z,474.0000
2022-09-27T10:44:54.090Z,473.0000
2022-09-27T10:45:56.492Z,472.0000
2022-09-27T10:46:56.496Z,473.0000
2022-09-27T10:47:58.772Z,475.0000
2022-09-27T10:49:01.033Z,473.0000
2022-09-27T10:50:03.311Z,473.0000
2022-09-27T10:51:05.618Z,473.0000
2022-09-27T10:52:07.871Z,474.0000
2022-09-27T10:53:10.167Z,473.0000
2022-09-27T10:54:10.352Z,474.0000
2022-09-27T10:55:12.652Z,472.0000
2022-09-27T10:56:14.971Z,468.0000
2022-09-27T10:57:17.263Z,466.0000
2022-09-27T10:58:19.583Z,470.0000
2022-09-27T10:59:21.901Z,469.0000
2022-09-27T11:00:22.087Z,471.0000
2022-09-27T11:01:24.464Z,473.0000
2022-09-27T11:02:26.731Z,473.0000
2022-09-27T11:03:29.100Z,471.0000
2022-09-27T11:04:31.399Z,474.0000
2022-09-27T11:05:33.697Z,475.0000
2022-09-27T11:06:33.920Z,472.0000
2022-09-27T11:07:36.143Z,473.0000
2022-09-27T11:08:38.394Z,468.0000
2022-09-27T11:09:40.657Z,468.0000
2022-09-27T11:10:42.878Z,471.0000
2022-09-27T11:11:45.139Z,470.0000
2022-09-27T11:12:47.395Z,470.0000
2022-09-27T11:13:47.531Z,470.0000
2022-09-27T11:14:49.810Z,469.0000
2022-09-27T11:15:52.077Z,471.0000
2022-09-27T11:16:54.329Z,471.0000
2022-09-27T11:17:56.500Z,473.0000
2022-09-27T11:18:58.707Z,473.0000
2022-09-27T11:20:00.906Z,472.0000
2022-09-27T11:21:03.084Z,470.0000
2022-09-27T11:22:05.377Z,471.0000
2022-09-27T11:23:07.578Z,471.0000
2022-09-27T11:24:09.797Z,472.0000
2022-09-27T11:25:12.097Z,471.0000
2022-09-27T11:26:12.168Z,468.0000
2022-09-27T11:27:14.445Z,468.0000
2022-09-27T11:28:16.608Z,471.0000
2022-09-27T11:29:18.831Z,469.0000
2022-09-27T11:30:21.091Z,468.0000
2022-09-27T11:31:26.234Z,469.0000
2022-09-27T11:32:26.391Z,467.0000
2022-09-27T11:33:27.862Z,466.0000
2022-09-27T11:34:30.113Z,469.0000
2022-09-27T11:35:32.365Z,466.0000
2022-09-27T11:36:32.472Z,464.0000
2022-09-27T11:37:34.758Z,464.0000
2022-09-27T11:38:53.711Z,465.0000
2022-09-27T11:39:39.156Z,466.0000
2022-09-27T11:40:41.436Z,469.0000
2022-09-27T11:41:43.596Z,468.0000
2022-09-27T11:42:45.857Z,468.0000
2022-09-27T11:43:48.031Z,465.0000
2022-09-27T11:44:55.858Z,467.0000
2022-09-27T11:46:14.198Z,467.0000
2022-09-27T11:46:52.747Z,466.0000
2022-09-27T11:47:55.012Z,464.0000
2022-09-27T11:48:57.145Z,465.0000
2022-09-27T11:49:59.342Z,468.0000
2022-09-27T11:51:01.616Z,468.0000
2022-09-27T11:52:03.892Z,470.0000
2022-09-27T11:53:06.228Z,468.0000
2022-09-27T11:54:08.572Z,466.0000
2022-09-27T11:55:08.648Z,466.0000
2022-09-27T11:56:10.984Z,463.0000
2022-09-27T11:57:13.280Z,465.0000
2022-09-27T11:58:15.624Z,465.0000
2022-09-27T11:59:22.458Z,463.0000
2022-09-27T12:00:20.180Z,461.0000
2022-09-27T12:01:20.326Z,463.0000
2022-09-27T12:02:22.745Z,467.0000
2022-09-27T12:03:24.935Z,465.0000
2022-09-27T12:04:27.191Z,457.0000
2022-09-27T12:05:29.496Z,453.0000
2022-09-27T12:06:31.733Z,457.0000
2022-09-27T12:07:33.966Z,460.0000
2022-09-27T12:08:36.221Z,458.0000
2022-09-27T12:09:38.422Z,462.0000
2022-09-27T12:10:38.477Z,459.0000
2022-09-27T12:11:40.715Z,454.0000
2022-09-27T12:12:42.970Z,454.0000
2022-09-27T12:13:45.262Z,453.0000
2022-09-27T12:14:47.484Z,455.0000
2022-09-27T12:15:49.816Z,467.0000
2022-09-27T12:16:51.984Z,458.0000
2022-09-27T12:17:54.185Z,460.0000
2022-09-27T12:18:56.390Z,460.0000